Time;durP1;ratioP1;P1;durP2;ratioP2;P2;SDS_P1;SDS_P2;PMS_P1;PMS_P2;Temp;Humidity;BMP_temperature;BMP_pressure;BME280_temperature;BME280_humidity;BME280_pressure;Samples;Min_cycle;Max_cycle;Signal;HPM_P1;HPM_P2
2023/11/19 00:00:11;;;;;;;7.90;2.20;;;;;;;25.85;35.63;100206.06;4483448;32;34839;-60
2023/11/19 00:02:41;;;;;;;5.57;2.40;;;;;;;25.84;35.78;100188.81;4483521;32;33581;-60
2023/11/19 00:05:11;;;;;;;6.20;2.60;;;;;;;25.82;35.91;100190.94;4483786;32;33972;-60
2023/11/19 00:07:42;;;;;;;;;;;;;;;25.80;35.95;100201.28;4483998;32;34749;-61
2023/11/19 00:10:10;;;;;;;5.65;2.80;;;;;;;25.89;35.80;100188.12;4483478;32;34245;-60
2023/11/19 00:12:39;;;;;;;5.93;2.45;;;;;;;25.78;35.98;100189.72;4483219;32;34290;-60
2023/11/19 00:15:13;;;;;;;4.80;2.45;;;;;;;25.74;36.12;100194.00;4481974;32;34684;-59
2023/11/19 00:17:44;;;;;;;5.68;2.30;;;;;;;25.73;36.23;100188.72;4483365;32;34778;-60
2023/11/19 00:20:12;;;;;;;4.65;2.40;;;;;;;25.70;36.29;100187.31;4484344;32;34492;-58
2023/11/19 00:22:41;;;;;;;5.45;2.50;;;;;;;25.68;36.48;100194.91;4485383;32;33676;-59
2023/11/19 00:25:11;;;;;;;5.55;2.22;;;;;;;25.67;36.58;100201.44;4484129;32;33593;-59
2023/11/19 00:27:39;;;;;;;4.12;2.20;;;;;;;25.65;36.52;100198.94;4485514;32;34162;-59
2023/11/19 00:30:10;;;;;;;3.65;2.10;;;;;;;25.64;36.62;100210.09;4485323;32;34809;-59
2023/11/19 00:32:39;;;;;;;5.75;2.65;;;;;;;25.62;36.58;100220.44;4485040;32;33553;-59
2023/11/19 00:35:07;;;;;;;3.70;2.20;;;;;;;25.62;36.59;100226.72;4485335;32;34796;-59
2023/11/19 00:37:34;;;;;;;5.85;2.20;;;;;;;25.60;36.66;100228.88;4485575;32;33872;-58
2023/11/19 00:40:05;;;;;;;4.12;2.20;;;;;;;25.58;36.75;100217.31;4485067;32;34443;-59
2023/11/19 00:42:33;;;;;;;4.62;2.42;;;;;;;25.57;36.76;100206.63;4485328;32;33489;-58
2023/11/19 00:45:01;;;;;;;6.10;2.35;;;;;;;25.54;36.78;100207.91;4485148;32;33870;-58
2023/11/19 00:47:31;;;;;;;4.50;2.50;;;;;;;25.55;36.80;100200.53;4485044;32;33716;-59
2023/11/19 00:49:58;;;;;;;7.35;2.40;;;;;;;25.54;36.80;100196.16;4485045;32;34061;-58
2023/11/19 00:52:26;;;;;;;4.18;2.22;;;;;;;25.53;36.82;100200.78;4485443;32;33664;-59
2023/11/19 00:54:54;;;;;;;5.10;1.92;;;;;;;25.51;36.80;100196.59;4485059;32;33682;-59
2023/11/19 00:57:21;;;;;;;4.50;2.47;;;;;;;25.51;36.82;100193.88;4485211;32;33909;-59
2023/11/19 00:59:49;;;;;;;6.60;2.10;;;;;;;25.49;36.86;100194.09;4485226;32;34067;-60
2023/11/19 01:02:16;;;;;;;5.37;2.17;;;;;;;25.48;36.88;100197.91;4484842;32;33572;-60
2023/11/19 01:04:45;;;;;;;4.12;2.28;;;;;;;25.46;36.89;100194.59;4484972;32;34758;-60
2023/11/19 01:07:12;;;;;;;4.35;2.08;;;;;;;25.45;36.89;100187.44;4485048;32;33724;-59
2023/11/19 01:09:44;;;;;;;3.58;2.20;;;;;;;25.44;36.96;100192.06;4483714;32;33207;-59
2023/11/19 01:12:12;;;;;;;5.35;2.12;;;;;;;25.42;36.99;100199.69;4483825;32;34469;-60
2023/11/19 01:14:39;;;;;;;3.83;2.33;;;;;;;25.41;37.02;100198.00;4484969;32;33681;-59
2023/11/19 01:17:08;;;;;;;4.85;2.37;;;;;;;25.41;36.97;100188.94;4484965;32;33479;-58
2023/11/19 01:19:36;;;;;;;4.55;2.37;;;;;;;25.41;37.04;100194.41;4484979;32;34068;-59
2023/11/19 01:22:04;;;;;;;5.53;2.15;;;;;;;25.39;36.99;100186.47;4483517;32;34291;-59
2023/11/19 01:24:33;;;;;;;5.30;2.33;;;;;;;25.37;37.07;100182.31;4484971;32;33838;-59
2023/11/19 01:27:01;;;;;;;4.85;2.30;;;;;;;25.37;37.05;100185.03;4484880;32;34782;-59
2023/11/19 01:29:28;;;;;;;4.37;2.30;;;;;;;25.35;37.07;100179.78;4484734;32;34479;-59
2023/11/19 01:31:56;;;;;;;3.87;2.25;;;;;;;25.34;37.08;100183.59;4484664;32;34423;-59
2023/11/19 01:34:23;;;;;;;5.22;2.60;;;;;;;25.33;37.07;100187.41;4484720;32;34557;-59
2023/11/19 01:36:51;;;;;;;5.82;2.28;;;;;;;25.32;37.10;100187.59;4484730;32;34697;-59
2023/11/19 01:39:20;;;;;;;5.07;2.30;;;;;;;25.31;37.15;100185.94;4484846;32;34245;-59
2023/11/19 01:41:48;;;;;;;4.12;2.17;;;;;;;25.29;37.13;100180.72;4484628;32;32897;-60
2023/11/19 01:44:16;;;;;;;3.53;2.10;;;;;;;25.28;37.19;100180.97;4484669;32;34683;-59
2023/11/19 01:46:45;;;;;;;5.25;2.35;;;;;;;25.28;37.26;100186.41;4484718;32;33924;-58
2023/11/19 01:49:14;;;;;;;4.87;2.40;;;;;;;25.25;37.38;100174.03;4483440;32;33702;-58
2023/11/19 01:51:41;;;;;;;7.12;2.80;;;;;;;25.25;37.45;100173.22;4483427;32;34128;-59
2023/11/19 01:54:09;;;;;;;3.95;2.35;;;;;;;25.24;37.55;100166.09;4484809;32;33920;-59
2023/11/19 01:56:37;;;;;;;4.32;2.10;;;;;;;25.23;37.40;100150.75;4483694;32;34635;-60
2023/11/19 01:59:04;;;;;;;4.32;2.28;;;;;;;25.21;37.48;100148.25;4484512;32;35016;-59
2023/11/19 02:01:34;;;;;;;4.57;2.12;;;;;;;25.21;37.39;100148.25;4485040;32;34368;-60
2023/11/19 02:04:02;;;;;;;3.22;1.85;;;;;;;25.18;37.47;100135.91;4484539;31;34038;-59
2023/11/19 02:06:30;;;;;;;3.70;2.05;;;;;;;25.18;37.44;100135.03;4475556;32;33679;-58
2023/11/19 02:08:57;;;;;;;4.20;2.17;;;;;;;25.17;37.54;100134.22;4459115;32;34503;-59
2023/11/19 02:11:29;;;;;;;5.00;2.58;;;;;;;25.16;37.48;100134.47;4468962;32;33569;-59
2023/11/19 02:13:57;;;;;;;6.15;2.22;;;;;;;25.15;37.50;100132.78;4474699;32;34650;-59
2023/11/19 02:16:24;;;;;;;4.25;2.42;;;;;;;25.14;37.46;100137.44;4483244;32;33978;-59
2023/11/19 02:18:53;;;;;;;3.87;1.92;;;;;;;25.13;37.46;100133.03;4484804;32;34122;-58
2023/11/19 02:21:20;;;;;;;3.00;2.05;;;;;;;25.11;37.61;100132.41;4484845;32;34086;-59
2023/11/19 02:23:48;;;;;;;4.37;2.15;;;;;;;25.11;37.68;100135.16;4484496;32;34788;-59
2023/11/19 02:26:22;;;;;;;3.40;2.00;;;;;;;25.11;37.63;100131.59;4483373;32;33859;-59
2023/11/19 02:28:50;;;;;;;3.45;2.05;;;;;;;25.09;37.69;100120.06;4470778;32;34734;-59
2023/11/19 02:31:19;;;;;;;3.33;2.00;;;;;;;25.08;37.65;100121.94;4484502;32;33982;-60
2023/11/19 02:33:46;;;;;;;4.55;2.22;;;;;;;25.08;37.70;100132.03;4484276;32;33794;-58
2023/11/19 02:36:15;;;;;;;5.80;2.60;;;;;;;25.07;37.62;100136.66;4484453;32;34276;-59
2023/11/19 02:38:43;;;;;;;2.95;1.95;;;;;;;25.05;37.73;100138.78;4484507;32;34177;-59
2023/11/19 02:41:11;;;;;;;5.75;2.15;;;;;;;25.05;37.77;100137.94;4484276;32;34072;-59
2023/11/19 02:43:39;;;;;;;3.42;2.15;;;;;;;25.04;37.77;100126.19;4483617;32;34571;-58
2023/11/19 02:46:07;;;;;;;4.12;2.10;;;;;;;25.04;37.78;100117.12;4483420;32;33289;-59
2023/11/19 02:48:37;;;;;;;3.40;2.00;;;;;;;25.02;37.79;100119.28;4484113;32;34179;-59
2023/11/19 02:51:09;;;;;;;2.75;1.80;;;;;;;25.02;37.82;100109.19;4484352;32;33674;-59
2023/11/19 02:53:37;;;;;;;5.72;2.10;;;;;;;25.01;37.76;100102.06;4483306;32;34071;-59
2023/11/19 02:56:14;;;;;;;4.68;1.80;;;;;;;25.00;37.84;100094.94;4483135;32;34872;-59
2023/11/19 02:58:44;;;;;;;6.87;1.87;;;;;;;24.99;37.91;100098.72;4484607;32;34328;-57
2023/11/19 03:01:23;;;;;;;4.87;2.08;;;;;;;24.99;37.91;100106.06;4484105;32;34366;-58
2023/11/19 03:03:56;;;;;;;5.15;2.12;;;;;;;24.99;37.86;100095.16;4484156;32;33851;-59
2023/11/19 03:06:24;;;;;;;4.15;2.10;;;;;;;24.97;37.97;100091.84;4484403;32;34043;-59
2023/11/19 03:08:52;;;;;;;3.08;1.80;;;;;;;24.96;37.98;100088.28;4484107;32;34438;-59
2023/11/19 03:11:20;;;;;;;4.03;2.30;;;;;;;24.95;37.99;100081.16;4483088;32;33692;-58
2023/11/19 03:13:47;;;;;;;4.00;2.05;;;;;;;24.94;37.92;100080.28;4483927;32;34237;-59
2023/11/19 03:16:16;;;;;;;4.40;1.92;;;;;;;24.93;38.07;100086.00;4484134;32;34202;-59
2023/11/19 03:18:44;;;;;;;3.37;1.95;;;;;;;24.92;38.05;100082.44;4484156;32;34147;-59
2023/11/19 03:21:12;;;;;;;3.78;1.80;;;;;;;24.92;38.04;100078.88;4484176;32;33585;-59
2023/11/19 03:23:40;;;;;;;3.58;1.80;;;;;;;24.91;38.04;100077.22;4484150;32;33927;-59
2023/11/19 03:26:09;;;;;;;3.35;2.00;;;;;;;24.91;38.01;100077.22;4483923;32;33798;-58
2023/11/19 03:28:36;;;;;;;2.95;1.92;;;;;;;24.89;38.04;100076.59;4482655;32;35086;-59
2023/11/19 03:31:08;;;;;;;2.47;1.67;;;;;;;24.88;38.08;100075.78;4484109;32;33657;-59
2023/11/19 03:33:37;;;;;;;4.65;2.03;;;;;;;24.88;38.16;100077.66;4483891;32;34563;-59
2023/11/19 03:36:06;;;;;;;5.53;2.30;;;;;;;24.87;38.16;100079.56;4484052;32;33818;-58
2023/11/19 03:38:33;;;;;;;4.70;2.30;;;;;;;24.87;38.13;100090.47;4483855;32;35041;-59
2023/11/19 03:41:01;;;;;;;3.65;1.80;;;;;;;24.86;38.19;100071.63;4483657;32;34576;-59
2023/11/19 03:43:28;;;;;;;5.47;1.98;;;;;;;24.85;38.34;100053.56;4483819;32;34732;-58
2023/11/19 03:45:56;;;;;;;3.72;2.00;;;;;;;24.85;38.43;100056.28;4482554;32;33001;-59
2023/11/19 03:48:23;;;;;;;5.22;1.90;;;;;;;24.84;38.42;100046.44;4483444;32;34086;-59
2023/11/19 03:50:51;;;;;;;2.75;1.70;;;;;;;24.83;38.44;100033.84;4483700;32;33406;-59
2023/11/19 03:53:18;;;;;;;4.47;2.08;;;;;;;24.82;38.44;100030.28;4483747;32;33841;-59
2023/11/19 03:55:46;;;;;;;4.85;2.12;;;;;;;24.82;38.49;100033.03;4485510;32;34242;-59
2023/11/19 03:58:14;;;;;;;3.47;1.77;;;;;;;24.82;38.40;100032.19;4485541;32;34338;-58
2023/11/19 04:00:41;;;;;;;3.20;1.80;;;;;;;24.80;38.43;100032.41;4485621;32;33301;-59
2023/11/19 04:03:09;;;;;;;4.05;1.92;;;;;;;24.81;38.49;100027.81;4476084;31;33999;-59
2023/11/19 04:05:37;;;;;;;2.42;1.42;;;;;;;24.80;38.42;100024.22;4469759;32;34791;-58
2023/11/19 04:08:05;;;;;;;3.00;1.65;;;;;;;24.80;38.44;100015.19;4455661;32;33698;-58
2023/11/19 04:10:33;;;;;;;4.80;1.90;;;;;;;24.80;38.48;100009.75;4469612;32;34286;-59
2023/11/19 04:13:01;;;;;;;5.25;1.98;;;;;;;24.78;38.56;100004.53;4469766;32;34092;-58
2023/11/19 04:15:29;;;;;;;3.33;2.05;;;;;;;24.78;38.57;100006.44;4469702;32;33851;-59
2023/11/19 04:17:56;;;;;;;4.25;2.30;;;;;;;24.76;38.64;100001.22;4469548;32;33916;-59
2023/11/19 04:20:24;;;;;;;5.10;2.00;;;;;;;24.77;38.61;100011.06;4469640;32;33529;-59
2023/11/19 04:22:53;;;;;;;3.83;2.00;;;;;;;24.75;38.66;100010.44;4469892;32;33873;-59
2023/11/19 04:25:21;;;;;;;4.07;2.10;;;;;;;24.74;38.62;100002.50;4469492;32;34854;-59
2023/11/19 04:27:49;;;;;;;6.65;2.12;;;;;;;24.75;38.61;99998.69;4455365;32;34117;-58
2023/11/19 04:30:18;;;;;;;3.53;1.75;;;;;;;24.74;38.67;99997.03;4469835;32;34468;-59
2023/11/19 04:32:45;;;;;;;3.87;1.77;;;;;;;24.72;38.70;99997.28;4469417;32;34633;-59
2023/11/19 04:35:13;;;;;;;3.40;1.83;;;;;;;24.71;38.71;99992.84;4469600;32;34720;-59
2023/11/19 04:37:41;;;;;;;3.33;1.90;;;;;;;24.71;38.61;100001.03;4469608;32;33877;-59
2023/11/19 04:40:10;;;;;;;2.78;1.77;;;;;;;24.69;38.72;99995.81;4469435;32;34815;-59
2023/11/19 04:42:40;;;;;;;2.95;1.70;;;;;;;24.69;38.68;100000.44;4469604;32;34050;-59
2023/11/19 04:45:10;;;;;;;5.22;2.10;;;;;;;24.69;38.67;100005.91;4469468;32;34730;-58
2023/11/19 04:47:38;;;;;;;4.47;1.83;;;;;;;24.68;38.68;100013.25;4455758;32;33839;-58
2023/11/19 04:50:06;;;;;;;2.58;1.80;;;;;;;24.67;38.69;100025.25;4481473;32;34570;-59
2023/11/19 04:52:34;;;;;;;3.60;1.70;;;;;;;24.67;38.67;100032.59;4485290;32;33868;-59
2023/11/19 04:55:02;;;;;;;4.55;1.90;;;;;;;24.65;38.83;100037.44;4485295;32;34010;-58
2023/11/19 04:57:29;;;;;;;3.70;1.90;;;;;;;24.65;38.87;100031.97;4485073;32;34796;-59
2023/11/19 04:59:57;;;;;;;3.65;1.87;;;;;;;24.65;38.87;100029.25;4484996;32;33592;-59
2023/11/19 05:02:25;;;;;;;3.12;1.90;;;;;;;24.64;38.78;100020.25;4485059;32;33421;-58
2023/11/19 05:04:53;;;;;;;2.53;1.60;;;;;;;24.64;38.88;100016.69;4484779;32;34676;-59
2023/11/19 05:07:20;;;;;;;4.50;2.25;;;;;;;24.63;38.89;100002.22;4484835;32;34093;-59
2023/11/19 05:09:48;;;;;;;3.10;1.70;;;;;;;24.63;38.95;100004.94;4484079;32;32834;-59
2023/11/19 05:12:16;;;;;;;3.35;1.85;;;;;;;24.61;38.94;100023.41;4485008;32;34616;-58
2023/11/19 05:14:49;;;;;;;3.00;1.60;;;;;;;24.62;38.90;100016.91;4485087;32;34024;-59
2023/11/19 05:17:18;;;;;;;3.20;1.85;;;;;;;24.62;38.93;100024.25;4485011;32;35099;-59
2023/11/19 05:19:46;;;;;;;3.20;1.80;;;;;;;24.60;38.95;100018.19;4485093;32;33112;-59
2023/11/19 05:22:13;;;;;;;4.30;1.80;;;;;;;24.59;38.95;100025.56;4485079;32;33841;-58
2023/11/19 05:24:41;;;;;;;5.43;2.25;;;;;;;24.59;38.96;100020.09;4485074;32;34290;-59
2023/11/19 05:27:11;;;;;;;2.65;1.62;;;;;;;24.59;38.96;100011.91;4484938;32;34096;-59
2023/11/19 05:29:42;;;;;;;3.62;1.80;;;;;;;24.59;38.91;100013.81;4484678;32;33616;-58
2023/11/19 05:32:11;;;;;;;4.80;2.08;;;;;;;24.58;38.89;100014.88;4484998;32;33716;-58
2023/11/19 05:34:38;;;;;;;4.25;2.00;;;;;;;24.58;39.00;100003.97;4484706;32;34441;-58
2023/11/19 05:37:19;;;;;;;3.70;1.70;;;;;;;24.56;38.96;100001.44;4484720;32;34010;-59
2023/11/19 05:39:47;;;;;;;4.35;2.15;;;;;;;24.56;38.97;100000.63;4470949;32;33637;-58
2023/11/19 05:42:14;;;;;;;3.50;1.85;;;;;;;24.55;39.04;100007.97;4484980;32;34086;-59
2023/11/19 05:44:42;;;;;;;6.62;2.12;;;;;;;24.54;39.09;100013.66;4484846;32;34049;-59
2023/11/19 05:47:09;;;;;;;2.58;1.75;;;;;;;24.53;39.08;100010.09;4484944;32;34137;-58
2023/11/19 05:49:37;;;;;;;3.08;1.55;;;;;;;24.53;39.13;99999.19;4484716;32;33608;-59
2023/11/19 05:52:07;;;;;;;3.58;1.62;;;;;;;24.52;39.09;100000.22;4484794;32;34277;-59
2023/11/19 05:54:37;;;;;;;3.83;2.08;;;;;;;24.51;39.06;100001.31;4458385;32;34747;-59
2023/11/19 05:57:05;;;;;;;;;;;;;;;24.52;39.13;100005.69;4485088;32;33984;-58
2023/11/19 05:59:33;;;;;;;5.15;2.10;;;;;;;24.62;38.95;100016.91;4485233;32;33026;-59
2023/11/19 06:02:00;;;;;;;4.37;1.85;;;;;;;24.54;39.04;100019.13;4482729;31;34763;-58
2023/11/19 06:04:28;;;;;;;4.18;1.80;;;;;;;24.50;39.13;100010.56;4468974;32;33919;-59
2023/11/19 06:06:55;;;;;;;3.30;1.60;;;;;;;24.48;39.17;100009.09;4468897;32;35533;-59
2023/11/19 06:09:23;;;;;;;3.92;1.60;;;;;;;24.48;39.26;99990.88;4468835;32;34288;-58
2023/11/19 06:11:51;;;;;;;3.42;1.80;;;;;;;24.49;39.29;99999.88;4468957;32;33838;-59
2023/11/19 06:14:18;;;;;;;3.70;1.80;;;;;;;24.47;39.27;99991.06;4468947;32;34680;-59
2023/11/19 06:16:46;;;;;;;3.12;1.75;;;;;;;24.47;39.22;99985.63;4467896;32;35166;-59
2023/11/19 06:19:14;;;;;;;4.25;1.87;;;;;;;24.46;39.25;99987.53;4482287;32;34366;-58
2023/11/19 06:21:41;;;;;;;3.22;1.70;;;;;;;24.46;39.32;99990.25;4484485;32;33983;-59
2023/11/19 06:24:09;;;;;;;6.15;2.80;;;;;;;24.46;39.37;99990.25;4484662;32;33860;-61
2023/11/19 06:26:36;;;;;;;5.80;2.20;;;;;;;24.45;37.74;99985.84;4484618;32;35332;-58
2023/11/19 06:29:04;;;;;;;3.53;2.40;;;;;;;24.42;37.90;99972.66;4484478;32;34448;-59
2023/11/19 06:31:31;;;;;;;4.35;2.20;;;;;;;24.40;38.19;99966.62;4484413;32;33650;-59
2023/11/19 06:33:59;;;;;;;4.25;2.12;;;;;;;24.40;38.32;99972.09;4484282;32;34071;-59
2023/11/19 06:36:27;;;;;;;5.60;2.20;;;;;;;24.39;38.28;99968.53;4484487;32;34206;-59
2023/11/19 06:38:55;;;;;;;5.43;2.87;;;;;;;24.39;38.33;99970.41;4484381;32;34020;-60
2023/11/19 06:41:23;;;;;;;4.05;1.98;;;;;;;24.39;38.38;99981.34;4484454;32;33967;-58
2023/11/19 06:43:50;;;;;;;4.00;2.12;;;;;;;24.39;38.44;99975.88;4484709;32;34004;-59
2023/11/19 06:46:19;;;;;;;4.72;2.10;;;;;;;24.39;38.47;99975.88;4484147;32;34212;-59
2023/11/19 06:48:46;;;;;;;3.97;2.37;;;;;;;24.37;38.51;99969.81;4484218;32;33656;-58
2023/11/19 06:51:14;;;;;;;6.15;2.47;;;;;;;24.36;38.55;99965.38;4484310;32;34018;-59
2023/11/19 06:53:44;;;;;;;4.50;2.00;;;;;;;24.36;38.65;99960.78;4484160;32;33911;-59
2023/11/19 06:56:18;;;;;;;;;;;;;;;24.36;38.70;99968.97;4484669;32;34181;-58
2023/11/19 06:58:47;;;;;;;3.30;2.00;;;;;;;24.47;38.52;99959.19;4484432;32;34285;-60
2023/11/19 07:01:18;;;;;;;3.62;2.12;;;;;;;24.37;38.64;99951.53;4484228;32;34490;-58
2023/11/19 07:03:46;;;;;;;4.20;2.00;;;;;;;24.34;38.79;99946.53;4471293;31;34656;-57
2023/11/19 07:06:14;;;;;;;5.03;1.98;;;;;;;24.34;38.86;99957.44;4468368;32;34126;-59
2023/11/19 07:08:44;;;;;;;3.90;2.08;;;;;;;24.33;38.87;99944.84;4468605;32;33722;-58
2023/11/19 07:11:14;;;;;;;4.22;2.35;;;;;;;24.33;38.87;99954.91;4454778;32;33729;-59
2023/11/19 07:13:42;;;;;;;;;;;;;;;24.31;38.92;99957.88;4468646;32;34098;-58
2023/11/19 07:16:10;;;;;;;4.55;2.40;;;;;;;24.42;38.77;99951.69;4468505;32;34872;-59
2023/11/19 07:18:37;;;;;;;3.80;1.80;;;;;;;24.34;38.89;99945.66;4468583;32;34172;-58
2023/11/19 07:21:06;;;;;;;4.60;2.20;;;;;;;24.31;39.00;99944.25;4468390;32;34431;-58
2023/11/19 07:23:34;;;;;;;4.65;2.08;;;;;;;24.31;39.00;99946.16;4468389;32;34106;-60
2023/11/19 07:26:04;;;;;;;3.53;2.05;;;;;;;24.31;39.06;99960.63;4468213;32;33988;-58
2023/11/19 07:28:32;;;;;;;3.67;2.03;;;;;;;24.30;39.08;99958.13;4467762;32;33651;-59
2023/11/19 07:31:00;;;;;;;3.80;2.10;;;;;;;24.31;39.05;99960.63;4468664;32;33627;-58
2023/11/19 07:33:27;;;;;;;3.30;1.87;;;;;;;24.30;39.06;99956.22;4468639;32;34001;-59
2023/11/19 07:35:56;;;;;;;3.92;2.20;;;;;;;24.30;39.08;99939.87;4468103;32;34737;-58
2023/11/19 07:38:25;;;;;;;3.65;2.12;;;;;;;24.31;39.05;99946.16;4468552;32;33193;-59
2023/11/19 07:40:53;;;;;;;3.55;1.80;;;;;;;24.30;39.09;99961.69;4468097;32;34673;-58
2023/11/19 07:43:24;;;;;;;3.80;2.12;;;;;;;24.29;39.08;99965.44;4468268;32;33954;-59
2023/11/19 07:45:52;;;;;;;3.85;2.17;;;;;;;24.31;39.13;99965.25;4468150;32;34111;-58
2023/11/19 07:48:23;;;;;;;5.40;2.10;;;;;;;24.28;39.19;99969.25;4465671;32;81716;-59
2023/11/19 07:50:51;;;;;;;4.60;2.00;;;;;;;24.29;39.20;99972.78;4483644;32;34576;-58
2023/11/19 07:53:20;;;;;;;3.40;1.98;;;;;;;24.29;39.21;99972.78;4483930;32;34403;-60
2023/11/19 07:55:48;;;;;;;4.25;2.22;;;;;;;24.29;39.20;99980.97;4483532;32;34825;-58
2023/11/19 07:58:15;;;;;;;5.47;2.45;;;;;;;24.28;39.27;99979.31;4483644;32;34484;-58
2023/11/19 08:00:43;;;;;;;4.25;2.20;;;;;;;24.27;39.26;99972.22;4483949;32;33925;-59
2023/11/19 08:03:11;;;;;;;4.40;2.10;;;;;;;24.27;39.29;99966.75;4483259;32;34824;-59
2023/11/19 08:05:39;;;;;;;4.32;2.30;;;;;;;24.26;39.31;99965.91;4483516;32;33910;-59
2023/11/19 08:08:07;;;;;;;3.78;1.95;;;;;;;24.26;39.33;99959.62;4483654;32;34304;-59
2023/11/19 08:10:34;;;;;;;3.65;1.98;;;;;;;24.26;39.33;99954.19;4483238;32;34595;-60
2023/11/19 08:13:02;;;;;;;3.53;2.00;;;;;;;24.26;39.34;99951.47;4483415;32;34454;-60
2023/11/19 08:15:30;;;;;;;4.32;2.50;;;;;;;24.26;39.33;99943.28;4483676;32;33714;-60
2023/11/19 08:17:59;;;;;;;3.85;2.03;;;;;;;24.25;39.35;99931.53;4483221;32;33570;-63
2023/11/19 08:20:27;;;;;;;4.53;1.92;;;;;;;24.25;39.41;99917.91;4483419;32;33824;-61
2023/11/19 08:22:54;;;;;;;4.35;2.20;;;;;;;24.24;39.33;99904.47;4483243;32;33769;-61
2023/11/19 08:25:23;;;;;;;4.05;2.15;;;;;;;24.26;38.92;99896.94;4483064;32;34144;-62
2023/11/19 08:27:50;;;;;;;5.75;2.75;;;;;;;24.29;38.32;99896.44;4483181;32;33717;-61
2023/11/19 08:30:18;;;;;;;4.72;2.08;;;;;;;24.29;38.28;99869.19;4482919;32;33868;-61
2023/11/19 08:32:46;;;;;;;3.85;1.98;;;;;;;24.33;38.19;99864.94;4482878;32;33670;-61
2023/11/19 08:35:15;;;;;;;5.70;2.30;;;;;;;24.42;38.52;99899.03;4482979;32;34163;-60
2023/11/19 08:37:45;;;;;;;3.65;2.00;;;;;;;24.51;38.65;99924.09;4481589;32;33655;-61
2023/11/19 08:40:14;;;;;;;8.80;2.67;;;;;;;24.63;38.55;99930.44;4483186;32;34600;-62
2023/11/19 08:42:42;;;;;;;3.58;2.25;;;;;;;24.72;38.41;99912.69;4485309;32;33744;-59
2023/11/19 08:45:10;;;;;;;4.45;2.25;;;;;;;24.82;38.18;99899.31;4485121;32;33908;-60
2023/11/19 08:47:37;;;;;;;5.07;2.25;;;;;;;24.90;37.93;99893.50;4470994;32;34307;-58
2023/11/19 08:50:06;;;;;;;6.22;2.10;;;;;;;24.97;37.71;99885.19;4485094;32;33903;-59
2023/11/19 08:52:33;;;;;;;5.25;2.20;;;;;;;25.04;37.52;99872.28;4485387;32;33995;-62
2023/11/19 08:55:03;;;;;;;6.05;2.62;;;;;;;25.14;37.38;99888.94;4484007;32;33797;-62
2023/11/19 08:57:30;;;;;;;8.77;2.20;;;;;;;25.22;37.20;99892.38;4483897;32;33633;-60
2023/11/19 08:59:57;;;;;;;8.23;2.92;;;;;;;25.30;37.13;99872.94;4485016;32;33606;-59
2023/11/19 09:02:25;;;;;;;3.55;2.10;;;;;;;25.40;36.96;99881.34;4485009;32;34689;-62
2023/11/19 09:04:53;;;;;;;6.47;3.58;;;;;;;25.48;36.79;99897.38;4485145;32;33648;-61
2023/11/19 09:07:21;;;;;;;9.23;4.25;;;;;;;25.54;33.73;99880.03;4480116;32;33358;-59
2023/11/19 09:09:49;;;;;;;7.10;4.20;;;;;;;25.53;34.44;99888.47;4492053;31;33700;-60
2023/11/19 09:12:16;;;;;;;9.85;4.18;;;;;;;25.59;33.91;99892.97;4500571;31;34973;-58
2023/11/19 09:14:45;;;;;;;7.47;3.65;;;;;;;25.65;33.87;99901.06;4486801;31;34839;-58
2023/11/19 09:17:13;;;;;;;8.38;3.75;;;;;;;25.74;33.93;99908.87;4484928;32;34415;-59
2023/11/19 09:19:41;;;;;;;7.90;3.75;;;;;;;25.81;33.92;99913.19;4484826;32;33821;-57
2023/11/19 09:22:09;;;;;;;13.77;4.45;;;;;;;25.88;33.93;99908.44;4484886;32;34069;-58
2023/11/19 09:24:36;;;;;;;7.50;3.55;;;;;;;25.95;33.97;99898.19;4484695;32;34114;-59
2023/11/19 09:27:05;;;;;;;11.90;3.70;;;;;;;26.01;34.00;99901.87;4484784;32;33521;-59
2023/11/19 09:29:32;;;;;;;7.65;3.50;;;;;;;26.07;34.04;99894.63;4484527;32;34359;-58
2023/11/19 09:32:01;;;;;;;8.43;3.30;;;;;;;26.11;34.07;99896.63;4484660;32;34154;-58
2023/11/19 09:34:31;;;;;;;6.22;3.62;;;;;;;26.14;34.16;99898.88;4484699;32;34814;-58
2023/11/19 09:36:59;;;;;;;9.77;3.42;;;;;;;26.18;34.28;99900.03;4484480;32;34839;-59
2023/11/19 09:39:27;;;;;;;7.75;3.37;;;;;;;26.20;34.34;99897.88;4484700;32;33882;-58
2023/11/19 09:41:55;;;;;;;7.03;3.55;;;;;;;26.20;34.32;99883.38;4484566;32;35355;-60
2023/11/19 09:44:23;;;;;;;6.72;3.33;;;;;;;26.24;34.32;99870.06;4484407;32;34528;-59
2023/11/19 09:46:57;;;;;;;6.03;3.42;;;;;;;26.27;34.39;99869.59;4470444;32;34361;-61
2023/11/19 09:49:24;;;;;;;8.75;3.37;;;;;;;26.31;34.42;99865.28;4469609;32;33916;-60
2023/11/19 09:51:55;;;;;;;11.73;3.47;;;;;;;26.35;34.39;99867.28;4482266;32;33936;-59
2023/11/19 09:54:22;;;;;;;8.15;4.20;;;;;;;26.41;34.42;99870.94;4482414;32;34444;-58
2023/11/19 09:56:50;;;;;;;12.88;3.62;;;;;;;26.44;34.46;99879.53;4480972;32;33547;-61
2023/11/19 09:59:18;;;;;;;11.30;3.50;;;;;;;26.47;34.50;99861.78;4475582;32;34891;-63
2023/11/19 10:01:46;;;;;;;6.80;3.62;;;;;;;26.50;34.56;99858.56;4483749;32;34549;-62
2023/11/19 10:04:17;;;;;;;6.85;3.05;;;;;;;26.52;34.61;99839.16;4480219;32;34789;-62
2023/11/19 10:06:44;;;;;;;5.32;3.08;;;;;;;26.53;34.66;99844.38;4482594;32;34378;-62
2023/11/19 10:09:15;;;;;;;6.20;2.55;;;;;;;26.54;34.70;99845.22;4482278;32;34632;-60
2023/11/19 10:11:43;;;;;;;6.20;3.15;;;;;;;26.55;34.70;99835.94;4480019;32;33987;-61
2023/11/19 10:14:10;;;;;;;8.63;3.60;;;;;;;26.54;34.71;99828.81;4471095;32;34238;-58
2023/11/19 10:16:38;;;;;;;5.80;3.03;;;;;;;26.53;34.77;99832.59;4471795;32;34328;-58
2023/11/19 10:19:06;;;;;;;7.10;3.42;;;;;;;26.51;34.80;99821.91;4461392;32;34807;-57
2023/11/19 10:21:34;;;;;;;5.80;3.17;;;;;;;26.49;34.85;99821.34;4470010;32;34370;-58
2023/11/19 10:24:01;;;;;;;8.88;3.35;;;;;;;26.47;34.86;99820.75;4453610;32;33741;-59
2023/11/19 10:26:29;;;;;;;9.70;3.60;;;;;;;26.43;34.95;99812.19;4482948;32;33495;-60
2023/11/19 10:28:57;;;;;;;7.43;3.15;;;;;;;26.42;34.98;99806.94;4483206;32;34530;-63
2023/11/19 10:31:25;;;;;;;5.80;3.37;;;;;;;26.38;35.00;99794.81;4483287;32;33797;-61
2023/11/19 10:33:54;;;;;;;9.85;3.12;;;;;;;26.37;34.99;99798.66;4483403;32;33631;-62
2023/11/19 10:36:23;;;;;;;8.45;3.20;;;;;;;26.34;35.06;99797.22;4483567;32;33650;-63
2023/11/19 10:38:55;;;;;;;6.50;3.37;;;;;;;26.31;35.10;99800.47;4483658;32;33918;-62
2023/11/19 10:41:30;;;;;;;6.90;3.35;;;;;;;26.29;35.14;99796.31;4470142;32;35029;-60
2023/11/19 10:43:58;;;;;;;8.50;2.80;;;;;;;26.27;35.14;99796.56;4484304;32;33688;-62
2023/11/19 10:46:39;;;;;;;6.32;2.67;;;;;;;26.22;35.19;99803.84;4484133;32;33637;-59
2023/11/19 10:49:07;;;;;;;5.57;3.12;;;;;;;26.20;35.21;99807.62;4483913;32;33925;-62
2023/11/19 10:51:35;;;;;;;7.85;3.40;;;;;;;26.15;35.25;99801.25;4483885;32;34757;-63
2023/11/19 10:54:06;;;;;;;7.28;3.33;;;;;;;26.12;35.27;99790.81;4482885;32;34005;-62
2023/11/19 10:56:34;;;;;;;5.72;3.05;;;;;;;26.08;35.30;99785.00;4484225;32;33372;-60
2023/11/19 10:59:03;;;;;;;6.20;3.05;;;;;;;26.06;35.34;99789.03;4483862;32;33478;-63
2023/11/19 11:01:44;;;;;;;8.43;3.33;;;;;;;26.03;35.38;99787.63;4483970;32;33995;-61
2023/11/19 11:04:15;;;;;;;7.60;3.15;;;;;;;26.03;35.44;99775.88;4483065;32;34002;-62
2023/11/19 11:06:43;;;;;;;10.30;3.20;;;;;;;25.95;35.52;99772.44;4482519;32;33364;-61
2023/11/19 11:09:15;;;;;;;8.40;3.17;;;;;;;25.92;35.67;99772.91;4483969;32;33408;-62
2023/11/19 11:11:48;;;;;;;9.40;3.65;;;;;;;25.90;35.79;99768.78;4470203;32;34633;-61
2023/11/19 11:14:16;;;;;;;6.90;3.50;;;;;;;25.86;35.90;99751.19;4469811;32;34064;-62
2023/11/19 11:16:44;;;;;;;9.20;3.65;;;;;;;25.83;35.99;99738.00;4482470;32;33590;-59
2023/11/19 11:19:12;;;;;;;8.65;3.78;;;;;;;25.80;36.07;99730.31;4483937;32;34087;-59
2023/11/19 11:21:40;;;;;;;6.97;3.05;;;;;;;25.77;36.02;99730.81;4482700;32;33697;-62
2023/11/19 11:24:26;;;;;;;8.23;3.30;;;;;;;25.74;36.05;99729.38;4482541;32;34740;-63
2023/11/19 11:27:22;;;;;;;6.35;3.20;;;;;;;25.74;36.12;99736.72;4482688;32;33327;-63
2023/11/19 11:30:01;;;;;;;7.50;3.10;;;;;;;25.74;36.04;99737.56;4478851;32;34318;-62
2023/11/19 11:32:45;;;;;;;6.45;3.28;;;;;;;25.79;35.99;99731.41;4466833;32;34749;-62
2023/11/19 11:35:19;;;;;;;8.27;3.62;;;;;;;25.88;35.92;99735.38;4475432;32;34086;-62